createdAt,value
2023-03-14T00:00:23.734Z,11.93
2023-03-14T00:02:55.188Z,10.38
2023-03-14T00:05:22.884Z,11.18
2023-03-14T00:07:50.719Z,10.40
2023-03-14T00:10:18.761Z,11.85
2023-03-14T00:12:46.501Z,15.10
2023-03-14T00:15:14.212Z,11.80
2023-03-14T00:17:44.461Z,11.55
2023-03-14T00:20:12.750Z,12.77
2023-03-14T00:22:41.816Z,10.80
2023-03-14T00:25:11.418Z,12.60
2023-03-14T00:27:39.372Z,12.32
2023-03-14T00:30:09.129Z,11.00
2023-03-14T00:32:41.586Z,9.77
2023-03-14T00:35:10.320Z,11.70
2023-03-14T00:37:38.207Z,9.77
2023-03-14T00:40:09.244Z,11.73
2023-03-14T00:42:36.914Z,13.07
2023-03-14T00:45:05.078Z,11.52
2023-03-14T00:47:34.964Z,9.20
2023-03-14T00:50:03.351Z,9.53
2023-03-14T00:52:31.406Z,8.32
2023-03-14T00:54:58.888Z,9.43
2023-03-14T00:57:26.461Z,9.10
2023-03-14T00:59:55.038Z,10.57
2023-03-14T01:02:22.597Z,10.47
2023-03-14T01:04:50.379Z,8.13
2023-03-14T01:07:18.259Z,9.02
2023-03-14T01:09:47.323Z,10.52
2023-03-14T01:12:14.834Z,7.95
2023-03-14T01:14:43.313Z,9.40
2023-03-14T01:17:10.819Z,10.32
2023-03-14T01:19:38.884Z,11.05
2023-03-14T01:22:06.835Z,11.98
2023-03-14T01:24:34.356Z,10.52
2023-03-14T01:27:02.204Z,12.63
2023-03-14T01:29:30.206Z,11.10
2023-03-14T01:31:57.816Z,11.45
2023-03-14T01:34:25.848Z,9.75
2023-03-14T01:36:53.933Z,11.55
2023-03-14T01:39:21.784Z,11.27
2023-03-14T01:41:49.476Z,9.98
2023-03-14T01:44:17.571Z,11.77
2023-03-14T01:46:49.258Z,11.70
2023-03-14T01:49:32.858Z,11.85
2023-03-14T01:52:25.514Z,11.57
2023-03-14T01:54:57.212Z,11.77
2023-03-14T01:57:34.464Z,10.98
2023-03-14T02:00:24.052Z,12.40
2023-03-14T02:02:56.138Z,10.05
2023-03-14T02:05:26.958Z,9.43
2023-03-14T02:07:57.647Z,14.05
2023-03-14T02:10:29.183Z,10.02
2023-03-14T02:12:57.953Z,11.50
2023-03-14T02:15:26.223Z,10.55
2023-03-14T02:17:53.969Z,12.23
2023-03-14T02:20:22.702Z,11.70
2023-03-14T02:22:53.039Z,11.40
2023-03-14T02:25:38.885Z,11.12
2023-03-14T02:28:07.016Z,10.63
2023-03-14T02:30:36.126Z,8.10
2023-03-14T02:33:08.726Z,9.65
2023-03-14T02:35:59.177Z,9.82
2023-03-14T02:38:35.116Z,10.43
2023-03-14T02:41:03.931Z,11.02
2023-03-14T02:43:32.159Z,11.03
2023-03-14T02:46:01.944Z,9.48
2023-03-14T02:48:41.173Z,11.57
2023-03-14T02:51:11.702Z,10.10
2023-03-14T02:53:40.766Z,10.88
2023-03-14T02:56:09.749Z,9.80
2023-03-14T02:58:37.700Z,9.02
2023-03-14T03:01:06.498Z,8.90
2023-03-14T03:03:34.196Z,10.93
2023-03-14T03:06:02.192Z,8.10
2023-03-14T03:08:30.556Z,10.60
2023-03-14T03:11:00.187Z,11.02
2023-03-14T03:13:28.427Z,10.70
2023-03-14T03:15:56.581Z,12.35
2023-03-14T03:18:24.291Z,10.65
2023-03-14T03:20:51.906Z,9.93
2023-03-14T03:23:19.746Z,10.85
2023-03-14T03:25:51.030Z,14.85
2023-03-14T03:28:19.492Z,9.68
2023-03-14T03:30:47.990Z,10.68
2023-03-14T03:33:15.848Z,11.60
2023-03-14T03:35:48.797Z,11.12
2023-03-14T03:38:18.092Z,12.43
2023-03-14T03:40:45.977Z,11.25
2023-03-14T03:43:13.660Z,11.52
2023-03-14T03:45:42.215Z,16.87
2023-03-14T03:48:09.842Z,11.10
2023-03-14T03:50:37.373Z,12.48
2023-03-14T03:53:05.288Z,10.95
2023-03-14T03:55:32.850Z,10.63
2023-03-14T03:58:00.483Z,9.43
2023-03-14T04:00:28.740Z,9.95
2023-03-14T04:02:56.633Z,10.95
2023-03-14T04:05:24.370Z,10.18
2023-03-14T04:07:52.466Z,11.25
2023-03-14T04:10:20.762Z,11.57
2023-03-14T04:12:48.565Z,10.30
2023-03-14T04:15:18.302Z,9.35
2023-03-14T04:17:46.314Z,11.02
2023-03-14T04:20:17.935Z,8.75
2023-03-14T04:22:45.813Z,9.83
2023-03-14T04:25:13.457Z,11.75
2023-03-14T04:27:41.490Z,11.10
2023-03-14T04:30:10.922Z,12.43
2023-03-14T04:32:41.671Z,10.18
2023-03-14T04:35:09.819Z,10.80
2023-03-14T04:37:37.766Z,9.18
2023-03-14T04:40:08.271Z,10.50
2023-03-14T04:42:36.125Z,9.10
2023-03-14T04:45:04.033Z,9.80
2023-03-14T04:47:32.227Z,10.30
2023-03-14T04:50:00.630Z,9.73
2023-03-14T04:52:28.194Z,9.77
2023-03-14T04:54:56.249Z,12.18
2023-03-14T04:57:24.408Z,11.05
2023-03-14T04:59:52.989Z,8.30
2023-03-14T05:02:22.232Z,11.00
2023-03-14T05:04:50.290Z,8.43
2023-03-14T05:07:18.085Z,9.55
2023-03-14T05:09:47.562Z,9.15
2023-03-14T05:12:16.845Z,9.63
2023-03-14T05:14:45.996Z,8.25
2023-03-14T05:17:15.530Z,8.30
2023-03-14T05:19:44.573Z,10.73
2023-03-14T05:22:12.768Z,13.05
2023-03-14T05:24:40.545Z,8.67
2023-03-14T05:27:08.610Z,9.40
2023-03-14T05:29:36.674Z,8.02
2023-03-14T05:32:04.652Z,9.80
2023-03-14T05:34:32.704Z,8.85
2023-03-14T05:37:02.458Z,9.50
2023-03-14T05:39:32.217Z,11.00
2023-03-14T05:42:00.680Z,10.25
2023-03-14T05:44:28.417Z,8.00
2023-03-14T05:46:56.337Z,8.25
2023-03-14T05:49:24.465Z,10.23
2023-03-14T05:51:52.376Z,13.30
2023-03-14T05:54:20.361Z,10.05
2023-03-14T05:56:48.038Z,9.10
2023-03-14T05:59:16.007Z,8.50
2023-03-14T06:01:44.243Z,9.67
2023-03-14T06:04:12.355Z,9.32
2023-03-14T06:06:40.102Z,9.18
2023-03-14T06:09:08.155Z,9.32
2023-03-14T06:11:36.928Z,11.05
2023-03-14T06:14:04.803Z,10.67
2023-03-14T06:16:33.184Z,7.75
2023-03-14T06:19:01.689Z,9.48
2023-03-14T06:21:29.741Z,8.13
2023-03-14T06:23:57.365Z,9.55
2023-03-14T06:26:26.114Z,10.83
2023-03-14T06:28:54.771Z,8.27
2023-03-14T06:31:22.538Z,9.70
2023-03-14T06:33:50.768Z,9.90
2023-03-14T06:36:19.201Z,11.57
2023-03-14T06:38:47.189Z,9.30
2023-03-14T06:41:15.303Z,11.10
2023-03-14T06:43:43.333Z,9.90
2023-03-14T06:46:11.259Z,12.52
2023-03-14T06:48:39.539Z,9.15
2023-03-14T06:51:07.913Z,10.10
2023-03-14T06:53:35.978Z,10.52
2023-03-14T06:56:04.126Z,10.77
2023-03-14T06:58:32.577Z,11.55
2023-03-14T07:01:00.820Z,11.75
2023-03-14T07:03:30.095Z,19.80
2023-03-14T07:05:57.821Z,12.98
2023-03-14T07:08:25.365Z,11.75
2023-03-14T07:10:53.215Z,10.75
2023-03-14T07:13:20.827Z,9.40
2023-03-14T07:15:49.400Z,9.37
2023-03-14T07:18:17.271Z,8.95
2023-03-14T07:20:46.821Z,9.98
2023-03-14T07:23:14.594Z,8.98
2023-03-14T07:25:43.843Z,11.05
2023-03-14T07:28:11.424Z,11.90
2023-03-14T07:30:39.389Z,9.68
2023-03-14T07:33:11.624Z,9.57
2023-03-14T07:35:39.668Z,9.75
2023-03-14T07:38:07.258Z,15.65
2023-03-14T07:40:35.517Z,8.60
2023-03-14T07:43:04.254Z,12.75
2023-03-14T07:45:42.479Z,7.65
2023-03-14T07:48:10.974Z,8.40
2023-03-14T07:50:38.555Z,7.75
2023-03-14T07:53:06.043Z,13.90
2023-03-14T07:55:34.066Z,10.38
2023-03-14T07:58:01.648Z,9.50
2023-03-14T08:00:29.588Z,12.27
2023-03-14T08:02:57.368Z,9.43
2023-03-14T08:05:25.107Z,9.70
2023-03-14T08:07:52.765Z,7.53
2023-03-14T08:10:23.619Z,8.38
2023-03-14T08:12:58.896Z,8.70
2023-03-14T08:15:27.572Z,11.77
2023-03-14T08:17:55.318Z,8.37
2023-03-14T08:20:24.854Z,8.95
2023-03-14T08:22:53.184Z,9.02
2023-03-14T08:25:20.796Z,8.23
2023-03-14T08:27:48.345Z,12.60
2023-03-14T08:30:17.756Z,8.73
2023-03-14T08:32:45.437Z,14.82
2023-03-14T08:35:13.247Z,10.60
2023-03-14T08:37:41.218Z,11.77
2023-03-14T08:40:11.029Z,9.80
2023-03-14T08:42:40.000Z,6.80
2023-03-14T08:45:09.296Z,7.28
2023-03-14T08:47:36.960Z,8.35
2023-03-14T08:50:06.643Z,10.25
2023-03-14T08:52:38.693Z,11.63
2023-03-14T08:55:06.914Z,12.20
2023-03-14T08:57:34.763Z,8.55
2023-03-14T09:00:13.344Z,10.68
2023-03-14T09:02:41.343Z,7.57
2023-03-14T09:05:09.519Z,7.53
2023-03-14T09:07:37.557Z,9.37
2023-03-14T09:10:06.505Z,7.47
2023-03-14T09:12:35.060Z,8.48
2023-03-14T09:15:03.609Z,7.22
2023-03-14T09:17:31.456Z,7.60
2023-03-14T09:20:06.281Z,6.77
2023-03-14T09:22:36.677Z,6.57
2023-03-14T09:25:05.610Z,7.57
2023-03-14T09:27:33.322Z,9.00
2023-03-14T09:30:01.410Z,7.45
2023-03-14T09:32:29.178Z,7.57
2023-03-14T09:34:56.915Z,6.95
2023-03-14T09:37:24.812Z,7.28
2023-03-14T09:39:52.642Z,7.90
2023-03-14T09:42:23.710Z,6.72
2023-03-14T09:45:01.009Z,7.60
2023-03-14T09:47:28.962Z,7.22
2023-03-14T09:50:04.392Z,8.10
2023-03-14T09:52:36.414Z,7.60
2023-03-14T09:55:06.713Z,4.70
2023-03-14T09:57:36.892Z,4.83
2023-03-14T10:00:15.869Z,7.35
2023-03-14T10:02:54.892Z,3.70
2023-03-14T10:05:24.569Z,8.27
2023-03-14T10:07:52.387Z,8.38
2023-03-14T10:10:22.480Z,5.30
2023-03-14T10:12:59.578Z,2.90
2023-03-14T10:15:37.166Z,5.32
2023-03-14T10:18:11.082Z,4.87
2023-03-14T10:20:43.527Z,8.30
2023-03-14T10:23:14.037Z,4.00
2023-03-14T10:25:45.143Z,5.53
2023-03-14T10:28:28.075Z,7.62
2023-03-14T10:30:56.949Z,6.57
2023-03-14T10:33:26.825Z,9.00
2023-03-14T10:36:20.676Z,4.27
2023-03-14T10:38:48.966Z,4.68
2023-03-14T10:41:36.023Z,3.83
2023-03-14T10:44:04.453Z,9.93
2023-03-14T10:46:34.366Z,4.18
2023-03-14T10:49:46.384Z,3.33
2023-03-14T10:52:50.944Z,5.35
2023-03-14T10:55:16.421Z,8.25
2023-03-14T10:57:45.162Z,5.65
2023-03-14T11:00:18.293Z,2.92
2023-03-14T11:03:05.169Z,3.70
2023-03-14T11:05:46.548Z,5.35
2023-03-14T11:08:26.319Z,4.50
2023-03-14T11:11:08.806Z,8.50
2023-03-14T11:13:44.843Z,7.68
2023-03-14T11:16:26.393Z,3.50
2023-03-14T11:18:57.336Z,4.30
2023-03-14T11:21:56.826Z,3.22
2023-03-14T11:24:58.790Z,3.97
2023-03-14T11:27:29.062Z,5.55
2023-03-14T11:30:16.941Z,3.67
2023-03-14T11:32:47.095Z,5.37
2023-03-14T11:35:25.546Z,5.22
2023-03-14T11:37:56.343Z,4.45
2023-03-14T11:40:27.629Z,3.15
2023-03-14T11:43:20.968Z,5.87
2023-03-14T11:45:51.173Z,11.05
2023-03-14T11:48:26.570Z,3.80
2023-03-14T11:50:56.674Z,3.47
2023-03-14T11:53:49.981Z,7.65
2023-03-14T11:56:48.920Z,3.93
2023-03-14T11:59:21.287Z,4.00
2023-03-14T12:01:55.962Z,2.87
2023-03-14T12:05:16.509Z,4.22
2023-03-14T12:08:10.647Z,6.07
2023-03-14T12:10:51.245Z,7.70
2023-03-14T12:13:19.312Z,4.07
2023-03-14T12:15:55.581Z,3.95
2023-03-14T12:18:35.491Z,6.50
2023-03-14T12:21:13.193Z,4.05
2023-03-14T12:23:51.403Z,4.47
2023-03-14T12:26:23.325Z,12.15
2023-03-14T12:28:58.399Z,5.10
2023-03-14T12:31:32.799Z,14.80
2023-03-14T12:34:12.953Z,6.15
2023-03-14T12:36:57.731Z,6.17
2023-03-14T12:39:59.527Z,4.43
2023-03-14T12:42:42.485Z,5.18
2023-03-14T12:45:26.561Z,2.92
2023-03-14T12:48:08.297Z,7.85
2023-03-14T12:50:44.602Z,5.10
2023-03-14T12:53:24.467Z,5.37
2023-03-14T12:56:21.406Z,7.03
2023-03-14T12:59:12.086Z,7.37
2023-03-14T13:01:48.011Z,4.05
2023-03-14T13:04:18.031Z,4.77
2023-03-14T13:06:54.902Z,4.07
2023-03-14T13:09:34.792Z,5.75
2023-03-14T13:12:14.890Z,4.15
2023-03-14T13:14:46.351Z,4.10
2023-03-14T13:17:34.136Z,5.77
2023-03-14T13:20:13.048Z,6.37
2023-03-14T13:22:47.855Z,5.35
2023-03-14T13:25:17.934Z,6.40
2023-03-14T13:27:45.574Z,5.25
2023-03-14T13:30:24.197Z,6.03
2023-03-14T13:32:53.893Z,3.85
2023-03-14T13:35:23.600Z,8.50
2023-03-14T13:38:10.270Z,7.03
2023-03-14T13:40:39.377Z,5.85
2023-03-14T13:43:13.520Z,7.03
2023-03-14T13:46:37.265Z,6.72
2023-03-14T13:49:07.019Z,6.05
2023-03-14T13:51:35.060Z,12.65
2023-03-14T13:54:06.279Z,6.95
2023-03-14T13:56:34.763Z,8.70
2023-03-14T13:59:02.597Z,6.90
2023-03-14T14:01:33.645Z,5.28
2023-03-14T14:04:16.506Z,10.60
2023-03-14T14:07:12.746Z,10.55
2023-03-14T14:09:47.722Z,7.60
2023-03-14T14:12:28.441Z,9.68
2023-03-14T14:15:07.778Z,11.05
2023-03-14T14:18:17.230Z,7.37
2023-03-14T14:20:47.825Z,5.87
2023-03-14T14:23:29.033Z,8.83
2023-03-14T14:26:00.517Z,8.27
2023-03-14T14:28:33.802Z,4.93
2023-03-14T14:31:22.270Z,7.87
2023-03-14T14:34:05.884Z,7.93
2023-03-14T14:36:33.694Z,5.37
2023-03-14T14:39:08.644Z,6.85
2023-03-14T14:41:41.087Z,3.92
2023-03-14T14:44:08.764Z,6.40
2023-03-14T14:46:38.352Z,3.72
2023-03-14T14:49:11.849Z,5.47
2023-03-14T14:51:44.130Z,6.97
2023-03-14T14:54:15.103Z,8.18
2023-03-14T14:56:50.918Z,7.05
2023-03-14T14:59:26.052Z,6.82
2023-03-14T15:02:02.464Z,8.13
2023-03-14T15:04:33.047Z,7.60
2023-03-14T15:07:00.949Z,12.82
2023-03-14T15:09:28.618Z,7.12
2023-03-14T15:11:56.908Z,13.38
2023-03-14T15:14:24.750Z,13.73
2023-03-14T15:16:52.298Z,6.43
2023-03-14T15:19:26.042Z,6.75
2023-03-14T15:21:54.520Z,7.72
2023-03-14T15:24:23.086Z,8.43
2023-03-14T15:26:50.760Z,7.10
2023-03-14T15:29:18.728Z,10.45
2023-03-14T15:31:46.418Z,6.43
2023-03-14T15:34:14.046Z,5.85
2023-03-14T15:36:41.861Z,4.50
2023-03-14T15:39:11.792Z,7.87
2023-03-14T15:41:39.593Z,7.35
2023-03-14T15:44:07.747Z,9.27
2023-03-14T15:46:35.626Z,8.60
2023-03-14T15:49:03.680Z,5.87
2023-03-14T15:51:31.612Z,6.73
2023-03-14T15:53:59.218Z,7.57
2023-03-14T15:56:28.921Z,8.50
2023-03-14T15:58:57.323Z,7.03
2023-03-14T16:01:25.419Z,7.20
2023-03-14T16:03:53.844Z,8.20
2023-03-14T16:06:21.446Z,6.43
2023-03-14T16:08:49.157Z,7.95
2023-03-14T16:11:20.342Z,12.50
2023-03-14T16:13:49.882Z,7.75
2023-03-14T16:16:18.037Z,6.00
2023-03-14T16:18:45.652Z,9.05
2023-03-14T16:21:16.099Z,8.52
2023-03-14T16:23:44.560Z,5.97
2023-03-14T16:26:17.172Z,7.68
2023-03-14T16:28:46.186Z,5.97
2023-03-14T16:31:17.299Z,5.57
2023-03-14T16:33:45.481Z,5.12
2023-03-14T16:36:14.514Z,3.83
2023-03-14T16:38:43.729Z,4.95
2023-03-14T16:41:14.584Z,5.43
2023-03-14T16:43:42.986Z,5.90
2023-03-14T16:46:14.701Z,6.35
2023-03-14T16:48:43.132Z,6.43
2023-03-14T16:51:11.328Z,5.70
2023-03-14T16:53:38.838Z,6.60
2023-03-14T16:56:06.858Z,6.62
2023-03-14T16:58:35.384Z,7.18
2023-03-14T17:01:11.137Z,10.82
2023-03-14T17:03:41.626Z,7.12
2023-03-14T17:06:15.221Z,8.03
2023-03-14T17:08:43.626Z,6.45
2023-03-14T17:11:11.455Z,9.00
2023-03-14T17:13:39.257Z,9.75
2023-03-14T17:16:07.725Z,8.20
2023-03-14T17:18:36.149Z,7.93
2023-03-14T17:21:04.086Z,6.50
2023-03-14T17:23:33.549Z,10.70
2023-03-14T17:26:01.199Z,7.10
2023-03-14T17:28:28.900Z,7.95
2023-03-14T17:31:07.132Z,8.33
2023-03-14T17:33:35.084Z,12.20
2023-03-14T17:36:03.626Z,9.35
2023-03-14T17:38:32.032Z,15.10
2023-03-14T17:40:59.778Z,15.85
2023-03-14T17:43:27.983Z,12.80
2023-03-14T17:46:08.788Z,10.98
2023-03-14T17:48:37.136Z,7.82
2023-03-14T17:51:04.972Z,6.40
2023-03-14T17:53:32.549Z,10.18
2023-03-14T17:56:00.893Z,7.73
2023-03-14T17:58:30.620Z,6.53
2023-03-14T18:00:58.595Z,6.07
2023-03-14T18:03:26.376Z,7.05
2023-03-14T18:05:53.836Z,6.65
2023-03-14T18:08:21.653Z,6.00
2023-03-14T18:10:54.002Z,5.90
2023-03-14T18:13:21.582Z,5.47
2023-03-14T18:15:49.439Z,5.50
2023-03-14T18:18:17.440Z,8.13
2023-03-14T18:20:50.292Z,8.27
2023-03-14T18:23:18.127Z,6.60
2023-03-14T18:25:45.687Z,5.20
2023-03-14T18:28:13.162Z,7.50
2023-03-14T18:30:41.637Z,6.18
2023-03-14T18:33:09.602Z,6.30
2023-03-14T18:35:37.837Z,7.53
2023-03-14T18:38:05.978Z,4.43
2023-03-14T18:40:34.828Z,5.70
2023-03-14T18:43:02.869Z,5.35
2023-03-14T18:45:31.550Z,5.50
2023-03-14T18:47:59.747Z,5.10
2023-03-14T18:50:28.184Z,7.10
2023-03-14T18:52:56.095Z,5.20
2023-03-14T18:55:23.566Z,6.00
2023-03-14T18:57:53.247Z,5.80
2023-03-14T19:00:22.132Z,4.60
2023-03-14T19:02:51.685Z,5.07
2023-03-14T19:05:22.985Z,4.95
2023-03-14T19:07:50.917Z,5.37
2023-03-14T19:10:18.907Z,4.30
2023-03-14T19:12:48.110Z,5.05
2023-03-14T19:15:16.350Z,4.65
2023-03-14T19:17:44.084Z,4.70
2023-03-14T19:20:13.953Z,3.55
2023-03-14T19:22:42.584Z,6.00
2023-03-14T19:25:10.897Z,4.45
2023-03-14T19:27:39.006Z,5.10
2023-03-14T19:30:07.599Z,5.97
2023-03-14T19:32:35.452Z,8.05
2023-03-14T19:35:03.548Z,7.23
2023-03-14T19:37:31.470Z,3.83
2023-03-14T19:39:59.064Z,4.55
2023-03-14T19:42:26.637Z,4.30
2023-03-14T19:44:56.477Z,5.20
2023-03-14T19:47:24.050Z,3.47
2023-03-14T19:49:52.654Z,3.25
2023-03-14T19:52:20.586Z,6.43
2023-03-14T19:54:48.195Z,7.15
2023-03-14T19:57:17.585Z,5.50
2023-03-14T19:59:45.502Z,5.07
2023-03-14T20:02:16.549Z,4.53
2023-03-14T20:04:46.587Z,7.43
2023-03-14T20:07:14.274Z,8.90
2023-03-14T20:09:42.758Z,5.10
2023-03-14T20:12:10.814Z,6.17
2023-03-14T20:14:38.284Z,6.53
2023-03-14T20:17:05.956Z,6.20
2023-03-14T20:19:36.154Z,6.60
2023-03-14T20:22:04.482Z,6.78
2023-03-14T20:24:35.139Z,9.77
2023-03-14T20:27:03.029Z,4.40
2023-03-14T20:29:31.670Z,5.28
2023-03-14T20:32:00.161Z,5.30
2023-03-14T20:34:32.331Z,5.50
2023-03-14T20:37:00.001Z,4.67
2023-03-14T20:39:27.788Z,5.53
2023-03-14T20:41:55.380Z,5.32
2023-03-14T20:44:22.863Z,7.60
2023-03-14T20:46:50.766Z,7.20
2023-03-14T20:49:18.257Z,5.87
2023-03-14T20:51:45.831Z,11.23
2023-03-14T20:54:16.470Z,11.35
2023-03-14T20:56:46.315Z,9.93
2023-03-14T20:59:14.373Z,9.02
2023-03-14T21:04:27.491Z,8.00
2023-03-14T21:06:55.258Z,8.32
2023-03-14T21:09:24.371Z,7.15
2023-03-14T21:11:52.624Z,7.95
2023-03-14T21:14:22.440Z,6.53
2023-03-14T21:16:50.305Z,7.97
2023-03-14T21:19:18.366Z,8.50
2023-03-14T21:21:45.883Z,8.80
2023-03-14T21:24:15.375Z,8.85
2023-03-14T21:26:43.114Z,9.13
2023-03-14T21:29:10.565Z,6.80
2023-03-14T21:31:38.859Z,6.70
2023-03-14T21:34:06.620Z,9.52
2023-03-14T21:36:34.169Z,10.15
2023-03-14T21:39:01.831Z,8.60
2023-03-14T21:41:29.947Z,9.82
2023-03-14T21:43:57.616Z,16.92
2023-03-14T21:46:27.861Z,10.70
2023-03-14T21:48:55.795Z,10.15
2023-03-14T21:51:29.940Z,10.30
2023-03-14T21:53:57.841Z,9.02
2023-03-14T21:56:27.877Z,7.75
2023-03-14T21:58:59.974Z,9.15
2023-03-14T22:01:27.825Z,9.45
2023-03-14T22:03:55.886Z,8.43
2023-03-14T22:06:23.466Z,8.20
2023-03-14T22:08:51.046Z,7.85
2023-03-14T22:11:18.894Z,8.55
2023-03-14T22:13:46.380Z,7.55
2023-03-14T22:16:14.318Z,8.47
2023-03-14T22:18:42.186Z,8.98
2023-03-14T22:21:09.767Z,9.55
2023-03-14T22:23:37.324Z,8.32
2023-03-14T22:26:05.266Z,8.65
2023-03-14T22:28:32.763Z,8.40
2023-03-14T22:31:03.287Z,7.72
2023-03-14T22:33:31.560Z,10.90
2023-03-14T22:35:59.069Z,10.63
2023-03-14T22:38:26.635Z,8.57
2023-03-14T22:41:01.051Z,10.30
2023-03-14T22:43:29.516Z,11.57
2023-03-14T22:46:01.505Z,9.98
2023-03-14T22:48:29.437Z,9.75
2023-03-14T22:50:57.508Z,8.95
2023-03-14T22:53:25.584Z,8.77
2023-03-14T22:55:59.963Z,8.75
2023-03-14T22:58:28.834Z,5.90
2023-03-14T23:00:56.409Z,5.87
2023-03-14T23:03:24.212Z,5.05
2023-03-14T23:05:52.224Z,6.63
2023-03-14T23:08:20.091Z,5.68
2023-03-14T23:10:47.633Z,4.70
2023-03-14T23:13:15.434Z,4.70
2023-03-14T23:15:43.733Z,5.65
2023-03-14T23:18:13.669Z,4.40
2023-03-14T23:20:43.165Z,5.82
2023-03-14T23:23:13.699Z,5.37
2023-03-14T23:25:52.954Z,4.72
2023-03-14T23:28:23.093Z,5.75
2023-03-14T23:30:56.036Z,4.70
2023-03-14T23:33:24.787Z,4.07
2023-03-14T23:35:54.497Z,3.97
2023-03-14T23:38:25.894Z,3.78
2023-03-14T23:40:54.107Z,2.60
2023-03-14T23:43:22.049Z,3.27
2023-03-14T23:45:54.501Z,3.62
2023-03-14T23:48:27.311Z,3.12
2023-03-14T23:51:00.274Z,5.12
2023-03-14T23:53:29.281Z,3.10
2023-03-14T23:55:57.233Z,3.63
2023-03-14T23:58:25.168Z,4.87
